sensor_id;sensor_type;location;lat;lon;timestamp;pressure;altitude;pressure_sealevel;temperature;humidity
34235;BME280;20500;49.856;20.290;2022-09-09T00:00:16;98528.38;;;18.82;74.09
34235;BME280;20500;49.856;20.290;2022-09-09T00:03:26;98528.77;;;18.80;74.25
34235;BME280;20500;49.856;20.290;2022-09-09T00:06:42;98532.13;;;18.76;74.36
34235;BME280;20500;49.856;20.290;2022-09-09T00:09:52;98529.21;;;18.73;74.31
34235;BME280;20500;49.856;20.290;2022-09-09T00:13:11;98525.38;;;18.72;74.41
34235;BME280;20500;49.856;20.290;2022-09-09T00:16:24;98528.94;;;18.67;74.39
34235;BME280;20500;49.856;20.290;2022-09-09T00:19:36;98532.27;;;18.65;74.49
34235;BME280;20500;49.856;20.290;2022-09-09T00:22:54;98532.23;;;18.63;74.61
34235;BME280;20500;49.856;20.290;2022-09-09T00:26:10;98535.77;;;18.62;74.70
34235;BME280;20500;49.856;20.290;2022-09-09T00:29:27;98532.45;;;18.60;74.75
34235;BME280;20500;49.856;20.290;2022-09-09T00:32:36;98533.02;;;18.58;74.81
34235;BME280;20500;49.856;20.290;2022-09-09T00:35:46;98537.58;;;18.57;74.82
34235;BME280;20500;49.856;20.290;2022-09-09T00:38:57;98538.50;;;18.56;74.92
34235;BME280;20500;49.856;20.290;2022-09-09T00:42:14;98538.73;;;18.56;74.87
34235;BME280;20500;49.856;20.290;2022-09-09T00:45:37;98544.35;;;18.54;74.97
34235;BME280;20500;49.856;20.290;2022-09-09T00:48:50;98544.95;;;18.49;74.98
34235;BME280;20500;49.856;20.290;2022-09-09T00:52:11;98549.30;;;18.49;75.13
34235;BME280;20500;49.856;20.290;2022-09-09T00:55:35;98548.75;;;18.44;75.14
34235;BME280;20500;49.856;20.290;2022-09-09T00:58:52;98554.21;;;18.41;75.19
34235;BME280;20500;49.856;20.290;2022-09-09T01:02:06;98554.33;;;18.42;75.33
34235;BME280;20500;49.856;20.290;2022-09-09T01:05:22;98565.56;;;18.41;75.26
34235;BME280;20500;49.856;20.290;2022-09-09T01:09:00;98565.50;;;18.41;75.34
34235;BME280;20500;49.856;20.290;2022-09-09T01:12:14;98568.29;;;18.40;75.41
34235;BME280;20500;49.856;20.290;2022-09-09T01:15:24;98568.38;;;18.39;75.50
34235;BME280;20500;49.856;20.290;2022-09-09T01:18:34;98571.48;;;18.38;75.44
34235;BME280;20500;49.856;20.290;2022-09-09T01:21:58;98577.14;;;18.36;75.55
34235;BME280;20500;49.856;20.290;2022-09-09T01:25:56;98579.51;;;18.33;75.57
34235;BME280;20500;49.856;20.290;2022-09-09T01:29:08;98581.56;;;18.31;75.58
34235;BME280;20500;49.856;20.290;2022-09-09T01:32:47;98581.30;;;18.29;75.65
34235;BME280;20500;49.856;20.290;2022-09-09T01:35:57;98584.61;;;18.29;75.57
34235;BME280;20500;49.856;20.290;2022-09-09T01:39:06;98583.77;;;18.26;75.69
34235;BME280;20500;49.856;20.290;2022-09-09T01:42:13;98583.86;;;18.25;75.61
34235;BME280;20500;49.856;20.290;2022-09-09T01:45:21;98592.42;;;18.23;75.59
34235;BME280;20500;49.856;20.290;2022-09-09T01:48:27;98597.89;;;18.20;75.70
34235;BME280;20500;49.856;20.290;2022-09-09T01:51:34;98597.57;;;18.19;75.74
34235;BME280;20500;49.856;20.290;2022-09-09T01:54:40;98599.14;;;18.18;75.78
34235;BME280;20500;49.856;20.290;2022-09-09T01:57:53;98608.10;;;18.17;75.84
34235;BME280;20500;49.856;20.290;2022-09-09T02:01:08;98612.93;;;18.16;75.97
34235;BME280;20500;49.856;20.290;2022-09-09T02:04:27;98617.35;;;18.16;75.87
34235;BME280;20500;49.856;20.290;2022-09-09T02:07:40;98620.00;;;18.15;75.89
34235;BME280;20500;49.856;20.290;2022-09-09T02:10:50;98620.59;;;18.13;75.94
34235;BME280;20500;49.856;20.290;2022-09-09T02:14:03;98625.04;;;18.11;75.95
34235;BME280;20500;49.856;20.290;2022-09-09T02:17:11;98623.25;;;18.09;76.05
34235;BME280;20500;49.856;20.290;2022-09-09T02:20:21;98625.57;;;18.08;76.02
34235;BME280;20500;49.856;20.290;2022-09-09T02:23:29;98625.33;;;18.06;76.10
34235;BME280;20500;49.856;20.290;2022-09-09T02:26:37;98631.35;;;18.04;76.17
34235;BME280;20500;49.856;20.290;2022-09-09T02:29:45;98632.38;;;18.04;76.16
34235;BME280;20500;49.856;20.290;2022-09-09T02:32:54;98634.77;;;18.02;76.16
34235;BME280;20500;49.856;20.290;2022-09-09T02:36:03;98637.09;;;18.02;76.23
34235;BME280;20500;49.856;20.290;2022-09-09T02:39:11;98643.08;;;18.01;76.36
34235;BME280;20500;49.856;20.290;2022-09-09T02:42:18;98646.13;;;18.00;76.23
34235;BME280;20500;49.856;20.290;2022-09-09T02:45:22;98649.35;;;18.00;76.30
34235;BME280;20500;49.856;20.290;2022-09-09T02:48:33;98647.63;;;17.98;76.47
34235;BME280;20500;49.856;20.290;2022-09-09T02:51:50;98646.11;;;17.97;76.42
34235;BME280;20500;49.856;20.290;2022-09-09T02:55:06;98646.08;;;17.96;76.42
34235;BME280;20500;49.856;20.290;2022-09-09T02:58:17;98651.17;;;17.92;76.40
34235;BME280;20500;49.856;20.290;2022-09-09T03:01:24;98654.59;;;17.90;76.47
34235;BME280;20500;49.856;20.290;2022-09-09T03:04:30;98661.23;;;17.87;76.36
34235;BME280;20500;49.856;20.290;2022-09-09T03:07:36;98658.75;;;17.84;76.60
34235;BME280;20500;49.856;20.290;2022-09-09T03:10:44;98658.40;;;17.83;76.62
34235;BME280;20500;49.856;20.290;2022-09-09T03:13:50;98657.36;;;17.81;76.59
34235;BME280;20500;49.856;20.290;2022-09-09T03:16:54;98662.73;;;17.80;76.62
34235;BME280;20500;49.856;20.290;2022-09-09T03:20:01;98660.49;;;17.79;76.76
34235;BME280;20500;49.856;20.290;2022-09-09T03:23:07;98659.58;;;17.78;76.62
34235;BME280;20500;49.856;20.290;2022-09-09T03:26:19;98661.54;;;17.74;76.61
34235;BME280;20500;49.856;20.290;2022-09-09T03:29:23;98662.14;;;17.71;76.61
34235;BME280;20500;49.856;20.290;2022-09-09T03:32:29;98663.58;;;17.66;76.74
34235;BME280;20500;49.856;20.290;2022-09-09T03:35:35;98664.35;;;17.62;76.80
34235;BME280;20500;49.856;20.290;2022-09-09T03:38:41;98665.77;;;17.59;76.76
34235;BME280;20500;49.856;20.290;2022-09-09T03:41:47;98664.15;;;17.57;76.74
34235;BME280;20500;49.856;20.290;2022-09-09T03:44:53;98664.63;;;17.53;76.76
34235;BME280;20500;49.856;20.290;2022-09-09T03:48:03;98667.94;;;17.51;76.76
34235;BME280;20500;49.856;20.290;2022-09-09T03:51:09;98670.77;;;17.48;76.74
34235;BME280;20500;49.856;20.290;2022-09-09T03:54:15;98672.01;;;17.44;76.85
34235;BME280;20500;49.856;20.290;2022-09-09T03:57:22;98673.65;;;17.42;76.89
34235;BME280;20500;49.856;20.290;2022-09-09T04:00:28;98676.45;;;17.40;76.80
34235;BME280;20500;49.856;20.290;2022-09-09T04:03:35;98681.11;;;17.37;76.87
34235;BME280;20500;49.856;20.290;2022-09-09T04:06:39;98682.47;;;17.34;76.92
34235;BME280;20500;49.856;20.290;2022-09-09T04:09:45;98681.93;;;17.30;76.92
34235;BME280;20500;49.856;20.290;2022-09-09T04:12:51;98683.63;;;17.25;76.86
34235;BME280;20500;49.856;20.290;2022-09-09T04:15:58;98687.48;;;17.22;76.99
34235;BME280;20500;49.856;20.290;2022-09-09T04:19:05;98692.95;;;17.18;76.91
34235;BME280;20500;49.856;20.290;2022-09-09T04:22:12;98689.45;;;17.15;76.90
34235;BME280;20500;49.856;20.290;2022-09-09T04:25:18;98687.20;;;17.12;76.94
34235;BME280;20500;49.856;20.290;2022-09-09T04:28:25;98686.98;;;17.10;76.96
34235;BME280;20500;49.856;20.290;2022-09-09T04:31:32;98687.16;;;17.10;77.00
34235;BME280;20500;49.856;20.290;2022-09-09T04:34:39;98685.67;;;17.08;77.02
34235;BME280;20500;49.856;20.290;2022-09-09T04:37:45;98681.80;;;17.07;77.01
34235;BME280;20500;49.856;20.290;2022-09-09T04:40:52;98684.60;;;17.07;77.16
34235;BME280;20500;49.856;20.290;2022-09-09T04:43:58;98682.43;;;17.08;77.16
34235;BME280;20500;49.856;20.290;2022-09-09T04:47:05;98681.99;;;17.10;77.24
34235;BME280;20500;49.856;20.290;2022-09-09T04:50:11;98685.32;;;17.11;77.21
34235;BME280;20500;49.856;20.290;2022-09-09T04:53:17;98686.20;;;17.13;77.33
34235;BME280;20500;49.856;20.290;2022-09-09T04:56:21;98685.52;;;17.14;77.29
34235;BME280;20500;49.856;20.290;2022-09-09T04:59:27;98686.19;;;17.17;77.47
34235;BME280;20500;49.856;20.290;2022-09-09T05:02:36;98691.77;;;17.20;77.51
34235;BME280;20500;49.856;20.290;2022-09-09T05:05:42;98693.56;;;17.25;77.67
34235;BME280;20500;49.856;20.290;2022-09-09T05:08:49;98692.48;;;17.29;77.63
34235;BME280;20500;49.856;20.290;2022-09-09T05:11:53;98696.13;;;17.35;77.70
34235;BME280;20500;49.856;20.290;2022-09-09T05:14:59;98697.70;;;17.38;77.78
34235;BME280;20500;49.856;20.290;2022-09-09T05:18:07;98694.47;;;17.41;77.75
34235;BME280;20500;49.856;20.290;2022-09-09T05:21:14;98696.63;;;17.45;77.84
34235;BME280;20500;49.856;20.290;2022-09-09T05:24:20;98688.01;;;17.50;77.77
34235;BME280;20500;49.856;20.290;2022-09-09T05:27:27;98687.60;;;17.56;77.85
34235;BME280;20500;49.856;20.290;2022-09-09T05:30:35;98689.61;;;17.59;77.84
34235;BME280;20500;49.856;20.290;2022-09-09T05:33:43;98690.06;;;17.62;77.86
34235;BME280;20500;49.856;20.290;2022-09-09T05:36:50;98695.37;;;17.66;77.85
34235;BME280;20500;49.856;20.290;2022-09-09T05:39:57;98698.80;;;17.67;77.76
34235;BME280;20500;49.856;20.290;2022-09-09T05:43:03;98701.04;;;17.67;77.76
34235;BME280;20500;49.856;20.290;2022-09-09T05:46:08;98701.21;;;17.66;77.73
34235;BME280;20500;49.856;20.290;2022-09-09T05:49:14;98710.44;;;17.65;77.85
34235;BME280;20500;49.856;20.290;2022-09-09T05:52:18;98714.40;;;17.65;77.79
34235;BME280;20500;49.856;20.290;2022-09-09T05:55:25;98712.82;;;17.66;77.96
34235;BME280;20500;49.856;20.290;2022-09-09T05:58:31;98714.34;;;17.67;77.94
34235;BME280;20500;49.856;20.290;2022-09-09T06:01:38;98713.52;;;17.68;77.98
34235;BME280;20500;49.856;20.290;2022-09-09T06:04:45;98710.61;;;17.72;77.96
34235;BME280;20500;49.856;20.290;2022-09-09T06:07:53;98710.54;;;17.73;77.96
34235;BME280;20500;49.856;20.290;2022-09-09T06:11:04;98711.05;;;17.77;77.99
34235;BME280;20500;49.856;20.290;2022-09-09T06:14:10;98712.81;;;17.79;77.95
34235;BME280;20500;49.856;20.290;2022-09-09T06:17:16;98714.64;;;17.79;78.03
34235;BME280;20500;49.856;20.290;2022-09-09T06:20:21;98716.38;;;17.81;78.04
34235;BME280;20500;49.856;20.290;2022-09-09T06:23:28;98717.79;;;17.80;78.09
34235;BME280;20500;49.856;20.290;2022-09-09T06:26:35;98724.13;;;17.83;78.09
34235;BME280;20500;49.856;20.290;2022-09-09T06:29:42;98726.84;;;17.89;78.16
34235;BME280;20500;49.856;20.290;2022-09-09T06:32:48;98727.48;;;17.93;78.18
34235;BME280;20500;49.856;20.290;2022-09-09T06:35:55;98733.40;;;17.98;78.18
34235;BME280;20500;49.856;20.290;2022-09-09T06:39:02;98735.33;;;18.03;78.22
34235;BME280;20500;49.856;20.290;2022-09-09T06:42:08;98735.21;;;18.14;78.29
34235;BME280;20500;49.856;20.290;2022-09-09T06:45:14;98728.02;;;18.25;78.34
34235;BME280;20500;49.856;20.290;2022-09-09T06:48:18;98733.80;;;18.44;78.46
34235;BME280;20500;49.856;20.290;2022-09-09T06:51:26;98732.59;;;18.65;78.40
34235;BME280;20500;49.856;20.290;2022-09-09T06:54:32;98731.48;;;18.83;78.19
34235;BME280;20500;49.856;20.290;2022-09-09T06:57:36;98736.14;;;18.98;77.85
34235;BME280;20500;49.856;20.290;2022-09-09T07:00:42;98735.48;;;19.09;77.97
34235;BME280;20500;49.856;20.290;2022-09-09T07:03:46;98732.17;;;19.30;78.01
34235;BME280;20500;49.856;20.290;2022-09-09T07:06:54;98734.89;;;19.51;77.83
34235;BME280;20500;49.856;20.290;2022-09-09T07:09:58;98732.31;;;19.72;77.74
34235;BME280;20500;49.856;20.290;2022-09-09T07:13:04;98737.98;;;19.94;77.55
34235;BME280;20500;49.856;20.290;2022-09-09T07:16:13;98737.20;;;20.17;77.36
34235;BME280;20500;49.856;20.290;2022-09-09T07:19:20;98738.96;;;20.30;76.92
34235;BME280;20500;49.856;20.290;2022-09-09T07:22:24;98739.27;;;20.41;76.47
34235;BME280;20500;49.856;20.290;2022-09-09T07:25:30;98735.98;;;20.52;76.35
34235;BME280;20500;49.856;20.290;2022-09-09T07:28:34;98732.56;;;20.65;76.11
34235;BME280;20500;49.856;20.290;2022-09-09T07:31:41;98731.61;;;20.80;76.08
34235;BME280;20500;49.856;20.290;2022-09-09T07:34:47;98737.45;;;20.96;75.94
34235;BME280;20500;49.856;20.290;2022-09-09T07:37:54;98734.42;;;21.02;75.48
34235;BME280;20500;49.856;20.290;2022-09-09T07:41:06;98732.02;;;21.05;75.46
34235;BME280;20500;49.856;20.290;2022-09-09T07:44:17;98731.08;;;21.05;74.87
34235;BME280;20500;49.856;20.290;2022-09-09T07:47:23;98730.02;;;21.04;74.94
34235;BME280;20500;49.856;20.290;2022-09-09T07:50:27;98734.85;;;21.14;74.75
34235;BME280;20500;49.856;20.290;2022-09-09T07:53:34;98738.53;;;21.22;74.51
34235;BME280;20500;49.856;20.290;2022-09-09T07:56:41;98741.83;;;21.32;74.44
34235;BME280;20500;49.856;20.290;2022-09-09T07:59:47;98740.66;;;21.47;74.21
34235;BME280;20500;49.856;20.290;2022-09-09T08:02:53;98739.52;;;21.60;74.01
34235;BME280;20500;49.856;20.290;2022-09-09T08:06:03;98739.98;;;21.74;73.45
34235;BME280;20500;49.856;20.290;2022-09-09T08:09:11;98742.73;;;21.71;72.79
34235;BME280;20500;49.856;20.290;2022-09-09T08:12:17;98743.25;;;21.62;72.53
34235;BME280;20500;49.856;20.290;2022-09-09T08:15:23;98750.41;;;21.57;72.45
34235;BME280;20500;49.856;20.290;2022-09-09T08:18:29;98758.27;;;21.51;72.03
34235;BME280;20500;49.856;20.290;2022-09-09T08:21:37;98760.08;;;21.39;71.73
34235;BME280;20500;49.856;20.290;2022-09-09T08:24:44;98765.70;;;21.33;71.70
34235;BME280;20500;49.856;20.290;2022-09-09T08:27:52;98762.21;;;21.25;71.52
34235;BME280;20500;49.856;20.290;2022-09-09T08:31:06;98764.31;;;21.25;71.51
34235;BME280;20500;49.856;20.290;2022-09-09T08:34:13;98764.50;;;21.27;71.37
34235;BME280;20500;49.856;20.290;2022-09-09T08:37:19;98758.27;;;21.28;71.07
34235;BME280;20500;49.856;20.290;2022-09-09T08:40:30;98755.45;;;21.31;71.12
34235;BME280;20500;49.856;20.290;2022-09-09T08:43:40;98760.98;;;21.40;71.00
34235;BME280;20500;49.856;20.290;2022-09-09T08:46:54;98766.09;;;21.47;70.50
34235;BME280;20500;49.856;20.290;2022-09-09T08:50:17;98772.08;;;21.48;70.31
34235;BME280;20500;49.856;20.290;2022-09-09T08:53:29;98771.38;;;21.54;70.45
34235;BME280;20500;49.856;20.290;2022-09-09T08:56:42;98774.77;;;21.50;69.89
34235;BME280;20500;49.856;20.290;2022-09-09T08:59:50;98773.08;;;21.49;70.01
34235;BME280;20500;49.856;20.290;2022-09-09T09:03:02;98769.05;;;21.61;70.16
34235;BME280;20500;49.856;20.290;2022-09-09T09:06:23;98764.98;;;21.81;70.04
34235;BME280;20500;49.856;20.290;2022-09-09T09:09:36;98762.59;;;22.04;69.42
34235;BME280;20500;49.856;20.290;2022-09-09T09:12:45;98767.66;;;22.17;69.21
34235;BME280;20500;49.856;20.290;2022-09-09T09:15:55;98770.98;;;22.20;68.69
34235;BME280;20500;49.856;20.290;2022-09-09T09:19:04;98770.77;;;22.16;68.62
34235;BME280;20500;49.856;20.290;2022-09-09T09:22:18;98772.39;;;22.32;68.63
34235;BME280;20500;49.856;20.290;2022-09-09T09:25:30;98772.11;;;22.48;68.36
34235;BME280;20500;49.856;20.290;2022-09-09T09:28:37;98775.53;;;22.63;68.04
34235;BME280;20500;49.856;20.290;2022-09-09T09:31:47;98778.70;;;22.72;67.53
34235;BME280;20500;49.856;20.290;2022-09-09T09:34:56;98776.92;;;22.66;67.12
34235;BME280;20500;49.856;20.290;2022-09-09T09:38:15;98776.20;;;22.70;66.94
34235;BME280;20500;49.856;20.290;2022-09-09T09:41:42;98777.56;;;22.68;66.65
34235;BME280;20500;49.856;20.290;2022-09-09T09:44:50;98774.58;;;22.60;66.57
34235;BME280;20500;49.856;20.290;2022-09-09T09:48:05;98776.39;;;22.60;66.63
34235;BME280;20500;49.856;20.290;2022-09-09T09:51:13;98774.01;;;22.69;66.01
34235;BME280;20500;49.856;20.290;2022-09-09T09:54:26;98771.42;;;22.62;65.50
34235;BME280;20500;49.856;20.290;2022-09-09T09:57:34;98766.73;;;22.65;65.42
34235;BME280;20500;49.856;20.290;2022-09-09T10:00:49;98765.02;;;22.79;65.38
34235;BME280;20500;49.856;20.290;2022-09-09T10:03:57;98766.70;;;22.97;65.49
34235;BME280;20500;49.856;20.290;2022-09-09T10:07:11;98767.19;;;23.18;65.14
34235;BME280;20500;49.856;20.290;2022-09-09T10:10:23;98764.65;;;23.27;64.33
34235;BME280;20500;49.856;20.290;2022-09-09T10:13:39;98760.35;;;23.36;64.08
34235;BME280;20500;49.856;20.290;2022-09-09T10:16:59;98759.77;;;23.60;64.08
34235;BME280;20500;49.856;20.290;2022-09-09T10:20:30;98756.82;;;23.83;63.94
34235;BME280;20500;49.856;20.290;2022-09-09T10:23:50;98753.83;;;24.10;63.75
34235;BME280;20500;49.856;20.290;2022-09-09T10:27:04;98755.38;;;24.32;63.32
34235;BME280;20500;49.856;20.290;2022-09-09T10:30:16;98755.40;;;24.44;63.03
34235;BME280;20500;49.856;20.290;2022-09-09T10:33:30;98757.15;;;24.60;62.81
34235;BME280;20500;49.856;20.290;2022-09-09T10:36:43;98754.33;;;24.74;62.68
34235;BME280;20500;49.856;20.290;2022-09-09T10:39:59;98752.69;;;24.86;62.09
34235;BME280;20500;49.856;20.290;2022-09-09T10:43:16;98754.06;;;24.92;62.06
34235;BME280;20500;49.856;20.290;2022-09-09T10:46:31;98753.00;;;25.07;61.60
34235;BME280;20500;49.856;20.290;2022-09-09T10:50:01;98743.98;;;25.12;61.08
34235;BME280;20500;49.856;20.290;2022-09-09T10:53:17;98745.16;;;25.21;60.89
34235;BME280;20500;49.856;20.290;2022-09-09T10:56:26;98751.48;;;25.21;60.61
34235;BME280;20500;49.856;20.290;2022-09-09T10:59:36;98751.90;;;25.09;59.69
34235;BME280;20500;49.856;20.290;2022-09-09T11:02:47;98752.94;;;24.94;60.05
34235;BME280;20500;49.856;20.290;2022-09-09T11:05:57;98754.39;;;25.13;59.90
34235;BME280;20500;49.856;20.290;2022-09-09T11:09:08;98756.20;;;25.35;59.59
34235;BME280;20500;49.856;20.290;2022-09-09T11:12:20;98755.45;;;25.59;59.44
34235;BME280;20500;49.856;20.290;2022-09-09T11:15:31;98752.38;;;25.79;59.01
34235;BME280;20500;49.856;20.290;2022-09-09T11:18:42;98751.55;;;25.66;58.51
34235;BME280;20500;49.856;20.290;2022-09-09T11:21:50;98748.12;;;25.30;58.02
34235;BME280;20500;49.856;20.290;2022-09-09T11:25:01;98744.86;;;24.79;57.56
34235;BME280;20500;49.856;20.290;2022-09-09T11:28:24;98744.75;;;24.39;57.55
34235;BME280;20500;49.856;20.290;2022-09-09T11:31:44;98748.89;;;24.16;57.05
34235;BME280;20500;49.856;20.290;2022-09-09T11:34:52;98750.94;;;24.02;57.18
34235;BME280;20500;49.856;20.290;2022-09-09T11:38:24;98749.33;;;24.03;57.19
34235;BME280;20500;49.856;20.290;2022-09-09T11:41:35;98750.66;;;24.11;56.86
34235;BME280;20500;49.856;20.290;2022-09-09T11:44:42;98755.39;;;24.14;56.38
34235;BME280;20500;49.856;20.290;2022-09-09T11:47:55;98750.10;;;24.18;56.11
34235;BME280;20500;49.856;20.290;2022-09-09T11:51:04;98752.33;;;24.12;55.92
34235;BME280;20500;49.856;20.290;2022-09-09T11:54:29;98755.66;;;23.89;55.48
34235;BME280;20500;49.856;20.290;2022-09-09T11:57:37;98756.79;;;23.67;55.35
34235;BME280;20500;49.856;20.290;2022-09-09T12:00:45;98759.66;;;23.63;55.50
34235;BME280;20500;49.856;20.290;2022-09-09T12:03:54;98758.99;;;23.62;55.61
34235;BME280;20500;49.856;20.290;2022-09-09T12:07:03;98753.14;;;23.58;55.40
34235;BME280;20500;49.856;20.290;2022-09-09T12:10:23;98751.46;;;23.53;55.21
34235;BME280;20500;49.856;20.290;2022-09-09T12:13:31;98756.23;;;23.48;55.06
34235;BME280;20500;49.856;20.290;2022-09-09T12:16:38;98757.27;;;23.45;55.08
34235;BME280;20500;49.856;20.290;2022-09-09T12:19:44;98750.81;;;23.42;55.02
34235;BME280;20500;49.856;20.290;2022-09-09T12:23:04;98748.20;;;23.38;55.12
34235;BME280;20500;49.856;20.290;2022-09-09T12:26:31;98744.27;;;23.38;55.23
34235;BME280;20500;49.856;20.290;2022-09-09T12:29:45;98737.14;;;23.56;55.10
34235;BME280;20500;49.856;20.290;2022-09-09T12:33:02;98736.91;;;23.80;54.72
34235;BME280;20500;49.856;20.290;2022-09-09T12:36:18;98742.10;;;23.98;54.41
34235;BME280;20500;49.856;20.290;2022-09-09T12:39:31;98745.98;;;24.07;54.17
34235;BME280;20500;49.856;20.290;2022-09-09T12:42:42;98740.55;;;24.10;53.82
34235;BME280;20500;49.856;20.290;2022-09-09T12:45:48;98729.68;;;24.20;53.71
34235;BME280;20500;49.856;20.290;2022-09-09T12:49:01;98730.29;;;24.22;53.33
34235;BME280;20500;49.856;20.290;2022-09-09T12:52:11;98739.25;;;24.23;53.40
34235;BME280;20500;49.856;20.290;2022-09-09T12:55:21;98746.38;;;24.25;53.52
34235;BME280;20500;49.856;20.290;2022-09-09T12:58:30;98744.41;;;24.33;53.55
34235;BME280;20500;49.856;20.290;2022-09-09T13:01:37;98741.88;;;24.44;53.62
34235;BME280;20500;49.856;20.290;2022-09-09T13:04:43;98735.52;;;24.53;53.42
34235;BME280;20500;49.856;20.290;2022-09-09T13:07:51;98736.21;;;24.63;53.13
34235;BME280;20500;49.856;20.290;2022-09-09T13:10:59;98732.91;;;24.72;52.98
34235;BME280;20500;49.856;20.290;2022-09-09T13:14:12;98721.98;;;24.88;53.08
34235;BME280;20500;49.856;20.290;2022-09-09T13:17:25;98722.22;;;25.02;52.80
34235;BME280;20500;49.856;20.290;2022-09-09T13:20:33;98724.55;;;25.10;52.35
34235;BME280;20500;49.856;20.290;2022-09-09T13:23:39;98721.64;;;25.14;52.07
34235;BME280;20500;49.856;20.290;2022-09-09T13:26:53;98721.64;;;25.13;52.30
34235;BME280;20500;49.856;20.290;2022-09-09T13:30:00;98711.58;;;25.22;51.99
34235;BME280;20500;49.856;20.290;2022-09-09T13:33:20;98717.35;;;25.24;51.59
34235;BME280;20500;49.856;20.290;2022-09-09T13:36:31;98713.07;;;25.22;51.26
34235;BME280;20500;49.856;20.290;2022-09-09T13:39:39;98710.05;;;25.23;51.46
34235;BME280;20500;49.856;20.290;2022-09-09T13:42:45;98708.05;;;25.22;51.42
34235;BME280;20500;49.856;20.290;2022-09-09T13:45:57;98703.94;;;25.23;51.12
34235;BME280;20500;49.856;20.290;2022-09-09T13:49:21;98699.84;;;25.27;51.01
34235;BME280;20500;49.856;20.290;2022-09-09T13:52:28;98699.20;;;25.33;50.72
34235;BME280;20500;49.856;20.290;2022-09-09T13:55:37;98694.98;;;25.29;50.27
34235;BME280;20500;49.856;20.290;2022-09-09T13:58:43;98692.88;;;25.18;50.11
34235;BME280;20500;49.856;20.290;2022-09-09T14:01:49;98688.96;;;25.05;49.97
34235;BME280;20500;49.856;20.290;2022-09-09T14:04:56;98687.86;;;24.88;49.74
34235;BME280;20500;49.856;20.290;2022-09-09T14:08:04;98688.23;;;24.77;49.95
34235;BME280;20500;49.856;20.290;2022-09-09T14:11:13;98683.33;;;24.79;50.10
34235;BME280;20500;49.856;20.290;2022-09-09T14:14:19;98680.15;;;24.79;49.46
34235;BME280;20500;49.856;20.290;2022-09-09T14:17:25;98677.83;;;24.78;49.33
34235;BME280;20500;49.856;20.290;2022-09-09T14:20:35;98672.94;;;24.75;49.19
34235;BME280;20500;49.856;20.290;2022-09-09T14:23:41;98674.48;;;24.64;49.01
34235;BME280;20500;49.856;20.290;2022-09-09T14:26:47;98674.42;;;24.48;48.84
34235;BME280;20500;49.856;20.290;2022-09-09T14:29:53;98674.21;;;24.42;49.01
34235;BME280;20500;49.856;20.290;2022-09-09T14:32:59;98677.77;;;24.39;49.06
34235;BME280;20500;49.856;20.290;2022-09-09T14:36:06;98674.20;;;24.32;48.82
34235;BME280;20500;49.856;20.290;2022-09-09T14:39:12;98662.50;;;24.18;48.45
34235;BME280;20500;49.856;20.290;2022-09-09T14:42:18;98662.08;;;24.03;48.36
34235;BME280;20500;49.856;20.290;2022-09-09T14:45:24;98664.98;;;23.93;48.45
34235;BME280;20500;49.856;20.290;2022-09-09T14:48:31;98673.48;;;23.82;48.41
34235;BME280;20500;49.856;20.290;2022-09-09T14:51:38;98664.83;;;23.73;48.51
34235;BME280;20500;49.856;20.290;2022-09-09T14:54:44;98660.76;;;23.69;48.40
34235;BME280;20500;49.856;20.290;2022-09-09T14:57:50;98666.83;;;23.68;48.49
34235;BME280;20500;49.856;20.290;2022-09-09T15:00:56;98668.10;;;23.69;48.28
34235;BME280;20500;49.856;20.290;2022-09-09T15:04:07;98667.59;;;23.68;48.28
34235;BME280;20500;49.856;20.290;2022-09-09T15:07:13;98669.05;;;23.70;48.34
34235;BME280;20500;49.856;20.290;2022-09-09T15:10:19;98670.38;;;23.72;48.33
34235;BME280;20500;49.856;20.290;2022-09-09T15:13:25;98666.88;;;23.70;48.44
34235;BME280;20500;49.856;20.290;2022-09-09T15:16:32;98671.20;;;23.65;48.53
34235;BME280;20500;49.856;20.290;2022-09-09T15:19:38;98666.79;;;23.55;48.59
34235;BME280;20500;49.856;20.290;2022-09-09T15:22:46;98664.11;;;23.55;48.71
34235;BME280;20500;49.856;20.290;2022-09-09T15:25:54;98664.71;;;23.50;48.56
34235;BME280;20500;49.856;20.290;2022-09-09T15:29:01;98664.04;;;23.39;48.67
34235;BME280;20500;49.856;20.290;2022-09-09T15:32:07;98662.36;;;23.27;48.81
34235;BME280;20500;49.856;20.290;2022-09-09T15:35:14;98663.13;;;23.25;49.07
34235;BME280;20500;49.856;20.290;2022-09-09T15:38:19;98664.02;;;23.28;49.11
34235;BME280;20500;49.856;20.290;2022-09-09T15:41:26;98663.69;;;23.30;49.33
34235;BME280;20500;49.856;20.290;2022-09-09T15:44:39;98663.73;;;23.28;49.25
34235;BME280;20500;49.856;20.290;2022-09-09T15:47:48;98657.06;;;23.23;49.23
34235;BME280;20500;49.856;20.290;2022-09-09T15:51:03;98656.66;;;23.15;49.29
34235;BME280;20500;49.856;20.290;2022-09-09T15:54:32;98659.96;;;23.06;49.43
34235;BME280;20500;49.856;20.290;2022-09-09T15:57:39;98662.73;;;23.00;49.68
34235;BME280;20500;49.856;20.290;2022-09-09T16:00:45;98666.86;;;22.92;49.77
34235;BME280;20500;49.856;20.290;2022-09-09T16:03:51;98666.77;;;22.85;49.77
34235;BME280;20500;49.856;20.290;2022-09-09T16:06:59;98669.63;;;22.82;49.96
34235;BME280;20500;49.856;20.290;2022-09-09T16:10:06;98668.06;;;22.78;50.15
34235;BME280;20500;49.856;20.290;2022-09-09T16:13:12;98672.27;;;22.75;50.91
34235;BME280;20500;49.856;20.290;2022-09-09T16:16:20;98669.30;;;22.70;51.18
34235;BME280;20500;49.856;20.290;2022-09-09T16:19:28;98675.20;;;22.61;51.11
34235;BME280;20500;49.856;20.290;2022-09-09T16:22:34;98676.43;;;22.51;51.08
34235;BME280;20500;49.856;20.290;2022-09-09T16:25:39;98672.83;;;22.41;51.23
34235;BME280;20500;49.856;20.290;2022-09-09T16:28:47;98672.16;;;22.31;51.35
34235;BME280;20500;49.856;20.290;2022-09-09T16:31:53;98672.80;;;22.18;51.40